Portada
METAR-TAF:

METAR-TAF

Aeroports :

Phitsanulok, Tailàndia

latitud: 16-46-23N, longitud: 100-16-56E, altitud: 47 m

Observació

L'informe es va fer fa 7 hores i 36 minuts, a les 12:00 UTC
Vent calma
Temperatura 31°C
Humitat 71%
Pressió 1009 hPa
Visibilitat 10 km o més
Escasses núvols a una alçada de 3000 ft

METAR: VTPP 161200Z 00000KT 9999 FEW030 31/25 Q1009 NOSIG

Hora: 02:36 (19:36 UTC)

Pronòstic

L'informe es va fer fa 2 hores i 36 minuts, a les 17:00 UTC
Pronòstic vàlid del 16 a les 18 UTC al 17 a les 18 UTC
Vent 5 kt del Sud
Visibilitat 10 km o més
Núvols disperses a una alçada de 3000 ft
Temporalment
l' 17 a les 05 UTC al 17 a les 12 UTC
Vent 15 kt amb direcció variable amb ràfegues de 25 kt
Visibilitat: 5000 m
Escasses núvols a una alçada de 2500 ft, Cumulonimbus.
Cel ennuvolat a una alçada de 3000 ft
tempesta, pluja

TAF: VTPP 161700Z 1618/1718 18005KT 9999 SCT030 TEMPO 1705/1712 VRB15G25KT 5000 TSRA FEW025CB BKN030

Observacions i pronòstics meteorològics de més de 4000 aeroports (METAR i TAF).

Les estacions disponibles són els punts grocs i vermells al mapa.

Posi el ratolí al punt desitjat per veure el nom de l'estació.

Feu clic per veure les observacions i els pronòstics meteorològics.

Per canviar el mapa: feu clic els botons verds amb una creu de color negre per apropar; al botó verd amb un guió per allunyar la imatge; o en les fletxes verdes per a mapes adjacents.


METAR-TAF: